createdAt,value
2018-12-05T00:02:47.339Z,52.90
2018-12-05T00:05:45.148Z,52.90
2018-12-05T00:08:42.460Z,52.90
2018-12-05T00:11:39.551Z,52.90
2018-12-05T00:14:38.045Z,52.90
2018-12-05T00:17:35.542Z,53.00
2018-12-05T00:20:33.293Z,53.10
2018-12-05T00:23:30.571Z,53.10
2018-12-05T00:26:28.843Z,53.10
2018-12-05T00:29:26.311Z,53.20
2018-12-05T00:32:23.622Z,53.30
2018-12-05T00:35:21.297Z,53.50
2018-12-05T00:38:18.537Z,53.50
2018-12-05T00:41:15.745Z,53.50
2018-12-05T00:44:13.416Z,53.50
2018-12-05T00:47:10.382Z,53.50
2018-12-05T00:50:07.610Z,53.40
2018-12-05T00:53:04.896Z,53.50
2018-12-05T00:56:02.809Z,53.50
2018-12-05T00:59:00.256Z,53.50
2018-12-05T01:01:58.266Z,53.40
2018-12-05T01:04:55.633Z,53.30
2018-12-05T01:07:53.584Z,53.40
2018-12-05T01:10:50.802Z,53.40
2018-12-05T01:13:48.046Z,53.40
2018-12-05T01:16:45.376Z,53.50
2018-12-05T01:19:42.756Z,53.50
2018-12-05T01:22:40.073Z,53.60
2018-12-05T01:25:37.498Z,53.60
2018-12-05T01:28:35.204Z,53.60
2018-12-05T01:31:32.693Z,53.70
2018-12-05T01:34:30.541Z,53.70
2018-12-05T01:37:28.328Z,53.70
2018-12-05T01:40:26.385Z,53.70
2018-12-05T01:43:23.900Z,53.60
2018-12-05T01:46:22.302Z,53.60
2018-12-05T01:49:20.143Z,53.60
2018-12-05T01:52:17.292Z,53.60
2018-12-05T01:55:15.583Z,53.80
2018-12-05T01:58:13.024Z,53.70
2018-12-05T02:01:11.380Z,53.60
2018-12-05T02:04:08.775Z,53.50
2018-12-05T02:07:06.010Z,53.40
2018-12-05T02:10:04.094Z,53.30
2018-12-05T02:13:01.736Z,53.30
2018-12-05T02:15:59.140Z,53.30
2018-12-05T02:18:56.437Z,53.20
2018-12-05T02:21:54.180Z,53.10
2018-12-05T02:24:52.074Z,53.00
2018-12-05T02:27:49.425Z,53.00
2018-12-05T02:30:46.918Z,53.00
2018-12-05T02:33:44.531Z,52.90
2018-12-05T02:36:41.774Z,52.80
2018-12-05T02:39:38.996Z,52.80
2018-12-05T02:42:36.960Z,52.60
2018-12-05T02:45:35.615Z,52.40
2018-12-05T02:48:33.979Z,52.30
2018-12-05T02:51:31.504Z,52.30
2018-12-05T02:54:29.372Z,52.20
2018-12-05T02:57:26.815Z,52.30
2018-12-05T03:00:24.516Z,52.20
2018-12-05T03:03:22.331Z,52.20
2018-12-05T03:06:22.534Z,52.30
2018-12-05T03:09:20.366Z,51.70
2018-12-05T03:12:18.054Z,52.20
2018-12-05T03:15:15.810Z,52.20
2018-12-05T03:18:13.800Z,52.10
2018-12-05T03:21:11.316Z,52.10
2018-12-05T03:24:09.405Z,52.20
2018-12-05T03:27:06.457Z,52.30
2018-12-05T03:30:03.552Z,52.20
2018-12-05T03:33:01.389Z,52.20
2018-12-05T03:35:59.581Z,52.10
2018-12-05T03:38:57.554Z,52.00
2018-12-05T03:41:55.810Z,52.00
2018-12-05T03:44:53.358Z,52.00
2018-12-05T03:47:51.672Z,52.10
2018-12-05T03:50:50.781Z,51.90
2018-12-05T03:53:48.904Z,51.80
2018-12-05T03:56:46.356Z,51.80
2018-12-05T03:59:43.742Z,51.70
2018-12-05T04:02:41.357Z,51.50
2018-12-05T04:05:39.036Z,51.40
2018-12-05T04:08:36.107Z,51.40
2018-12-05T04:11:34.119Z,51.20
2018-12-05T04:14:32.194Z,51.30
2018-12-05T04:17:29.922Z,51.30
2018-12-05T04:20:27.089Z,51.20
2018-12-05T04:23:25.360Z,51.20
2018-12-05T04:26:21.934Z,51.30
2018-12-05T04:29:19.027Z,51.20
2018-12-05T04:32:15.935Z,51.40
2018-12-05T04:35:12.817Z,51.70
2018-12-05T04:38:10.268Z,51.80
2018-12-05T04:41:07.431Z,51.70
2018-12-05T04:44:04.356Z,51.50
2018-12-05T04:47:00.847Z,51.70
2018-12-05T04:49:56.943Z,51.60
2018-12-05T04:52:55.684Z,51.40
2018-12-05T04:55:51.956Z,51.40
2018-12-05T04:58:48.910Z,51.40
2018-12-05T05:01:45.764Z,51.40
2018-12-05T05:04:41.997Z,51.30
2018-12-05T05:07:38.736Z,51.30
2018-12-05T05:10:41.514Z,51.40
2018-12-05T05:13:46.470Z,51.40
2018-12-05T05:22:12.955Z,50.70
2018-12-05T05:25:41.882Z,50.70
2018-12-05T05:28:49.375Z,50.50
2018-12-05T05:32:04.306Z,50.50
2018-12-05T05:35:21.388Z,50.30
2018-12-05T05:38:36.537Z,50.30
2018-12-05T05:41:37.760Z,50.10
2018-12-05T05:44:45.964Z,49.80
2018-12-05T05:47:53.747Z,49.80
2018-12-05T05:50:58.894Z,49.80
2018-12-05T05:54:06.221Z,49.80
2018-12-05T05:57:13.990Z,49.70
2018-12-05T06:00:20.314Z,49.70
2018-12-05T06:07:06.629Z,49.30
2018-12-05T06:17:57.895Z,49.20
2018-12-05T06:20:58.424Z,49.20
2018-12-05T06:24:06.329Z,49.10
2018-12-05T06:27:25.824Z,48.80
2018-12-05T06:30:31.462Z,48.50
2018-12-05T06:35:39.330Z,48.40
2018-12-05T06:37:21.229Z,48.30
2018-12-05T06:40:23.289Z,48.20
2018-12-05T06:43:25.407Z,48.30
2018-12-05T06:46:29.951Z,48.30
2018-12-05T06:49:39.827Z,48.10
2018-12-05T06:52:42.452Z,47.70
2018-12-05T06:55:40.449Z,47.40
2018-12-05T06:59:00.562Z,47.40
2018-12-05T07:02:01.509Z,47.20
2018-12-05T07:05:07.047Z,47.00
2018-12-05T07:08:05.326Z,47.00
2018-12-05T07:11:02.933Z,47.10
2018-12-05T07:14:03.034Z,47.20
2018-12-05T07:17:00.405Z,46.90
2018-12-05T07:20:19.296Z,46.70
2018-12-05T07:23:21.025Z,46.60
2018-12-05T07:26:19.140Z,46.50
2018-12-05T07:29:18.260Z,46.50
2018-12-05T07:32:19.450Z,46.50
2018-12-05T07:35:24.789Z,46.60
2018-12-05T07:38:49.254Z,46.60
2018-12-05T07:42:03.072Z,46.50
2018-12-05T07:45:15.436Z,46.40
2018-12-05T07:48:17.918Z,46.40
2018-12-05T07:51:26.247Z,46.40
2018-12-05T07:54:32.840Z,46.40
2018-12-05T07:57:40.261Z,46.30
2018-12-05T08:03:02.223Z,46.00
2018-12-05T08:04:17.151Z,46.10
2018-12-05T08:08:09.874Z,46.30
2018-12-05T08:11:22.444Z,46.30
2018-12-05T08:14:28.044Z,46.30
2018-12-05T08:17:24.740Z,46.20
2018-12-05T08:20:31.101Z,46.00
2018-12-05T08:23:46.970Z,45.70
2018-12-05T08:26:44.574Z,45.50
2018-12-05T08:29:47.327Z,45.60
2018-12-05T08:32:49.132Z,45.50
2018-12-05T08:36:10.232Z,45.50
2018-12-05T08:39:11.716Z,45.80
2018-12-05T08:42:16.730Z,45.70
2018-12-05T08:48:32.485Z,45.40
2018-12-05T08:51:35.095Z,45.40
2018-12-05T08:54:31.196Z,45.30
2018-12-05T08:57:30.997Z,45.40
2018-12-05T09:00:24.836Z,45.30
2018-12-05T09:03:22.662Z,45.30
2018-12-05T09:06:42.039Z,45.30
2018-12-05T09:09:45.878Z,45.50
2018-12-05T09:12:53.556Z,45.40
2018-12-05T09:15:55.341Z,45.60
2018-12-05T09:19:23.490Z,45.70
2018-12-05T09:22:28.522Z,45.60
2018-12-05T09:25:38.630Z,45.40
2018-12-05T09:28:43.613Z,45.30
2018-12-05T09:32:15.114Z,45.30
2018-12-05T09:39:10.556Z,44.40
2018-12-05T09:42:01.377Z,44.40
2018-12-05T09:45:13.970Z,44.30
2018-12-05T09:48:30.730Z,44.30
2018-12-05T09:51:36.826Z,44.20
2018-12-05T09:54:45.374Z,44.10
2018-12-05T09:57:42.862Z,44.30
2018-12-05T10:01:05.135Z,44.00
2018-12-05T10:04:08.066Z,43.70
2018-12-05T10:07:23.985Z,43.30
2018-12-05T10:13:38.074Z,43.00
2018-12-05T10:16:45.831Z,42.90
2018-12-05T10:19:55.223Z,42.80
2018-12-05T10:23:01.635Z,42.60
2018-12-05T10:26:08.642Z,42.60
2018-12-05T10:29:45.842Z,42.50
2018-12-05T10:32:45.765Z,42.40
2018-12-05T10:35:54.750Z,42.40
2018-12-05T10:39:01.029Z,42.30
2018-12-05T10:42:05.761Z,42.20
2018-12-05T10:45:11.497Z,42.10
2018-12-05T10:48:16.785Z,42.10
2018-12-05T10:51:19.177Z,42.10
2018-12-05T10:54:23.785Z,42.20
2018-12-05T10:57:25.931Z,42.20
2018-12-05T11:00:43.414Z,42.30
2018-12-05T11:03:54.595Z,42.60
2018-12-05T11:07:12.010Z,42.70
2018-12-05T11:10:32.299Z,42.80
2018-12-05T11:13:54.047Z,42.90
2018-12-05T11:17:19.151Z,42.90
2018-12-05T11:21:00.792Z,43.00
2018-12-05T11:24:22.468Z,42.90
2018-12-05T11:27:20.275Z,43.20
2018-12-05T11:30:23.109Z,43.50
2018-12-05T11:33:18.251Z,43.60
2018-12-05T11:36:20.516Z,43.50
2018-12-05T11:39:18.930Z,43.50
2018-12-05T11:42:16.999Z,43.40
2018-12-05T11:45:14.899Z,43.30
2018-12-05T11:48:10.646Z,43.10
2018-12-05T11:51:07.545Z,43.20
2018-12-05T11:54:06.616Z,43.20
2018-12-05T11:57:02.567Z,43.20
2018-12-05T11:59:58.909Z,43.50
2018-12-05T12:03:09.469Z,43.50
2018-12-05T12:06:05.895Z,43.40
2018-12-05T12:09:01.913Z,43.60
2018-12-05T12:11:58.750Z,43.90
2018-12-05T12:14:54.835Z,44.00
2018-12-05T12:17:50.809Z,44.00
2018-12-05T12:20:47.495Z,44.00
2018-12-05T12:23:43.634Z,44.00
2018-12-05T12:26:39.781Z,44.10
2018-12-05T12:29:42.955Z,44.30
2018-12-05T12:32:42.206Z,44.50
2018-12-05T12:35:39.384Z,44.50
2018-12-05T12:38:35.596Z,44.70
2018-12-05T12:41:31.661Z,44.70
2018-12-05T12:44:27.393Z,44.70
2018-12-05T12:47:23.597Z,44.70
2018-12-05T12:50:19.366Z,44.90
2018-12-05T12:53:15.167Z,44.90
2018-12-05T12:56:10.704Z,44.90
2018-12-05T12:59:06.325Z,44.90
2018-12-05T13:02:01.826Z,44.80
2018-12-05T13:04:57.719Z,45.10
2018-12-05T13:07:53.326Z,45.10
2018-12-05T13:10:49.392Z,45.30
2018-12-05T13:13:45.442Z,45.50
2018-12-05T13:16:41.931Z,45.50
2018-12-05T13:19:40.306Z,45.60
2018-12-05T13:22:33.543Z,45.50
2018-12-05T13:25:29.448Z,45.30
2018-12-05T13:28:25.948Z,45.20
2018-12-05T13:31:23.603Z,45.10
2018-12-05T13:34:23.543Z,44.90
2018-12-05T13:37:20.085Z,44.80
2018-12-05T13:40:19.046Z,44.80
2018-12-05T13:43:14.869Z,44.80
2018-12-05T13:46:11.132Z,44.90
2018-12-05T13:49:06.966Z,44.80
2018-12-05T13:52:16.085Z,44.90
2018-12-05T13:55:12.166Z,45.20
2018-12-05T13:58:07.794Z,45.40
2018-12-05T14:01:04.306Z,45.50
2018-12-05T14:04:00.140Z,45.60
2018-12-05T14:06:55.541Z,45.70
2018-12-05T14:09:58.617Z,46.00
2018-12-05T14:12:55.550Z,46.20
2018-12-05T14:15:50.929Z,46.40
2018-12-05T14:18:46.741Z,46.60
2018-12-05T14:21:42.307Z,46.60
2018-12-05T14:24:37.900Z,46.80
2018-12-05T14:27:33.819Z,46.80
2018-12-05T14:30:32.966Z,46.90
2018-12-05T14:33:29.067Z,47.00
2018-12-05T14:36:24.904Z,47.10
2018-12-05T14:39:20.668Z,47.20
2018-12-05T14:42:17.056Z,47.30
2018-12-05T14:45:13.120Z,47.40
2018-12-05T14:48:08.633Z,47.60
2018-12-05T14:51:04.740Z,47.70
2018-12-05T14:54:00.738Z,47.90
2018-12-05T14:56:56.292Z,48.10
2018-12-05T14:59:51.753Z,48.20
2018-12-05T15:02:47.315Z,48.20
2018-12-05T15:05:42.806Z,48.30
2018-12-05T15:08:38.748Z,48.30
2018-12-05T15:11:34.830Z,48.40
2018-12-05T15:14:30.727Z,48.50
2018-12-05T15:17:26.816Z,48.60
2018-12-05T15:20:22.299Z,48.70
2018-12-05T15:23:18.624Z,48.80
2018-12-05T15:26:15.373Z,48.90
2018-12-05T15:29:11.491Z,49.00
2018-12-05T15:32:07.615Z,49.10
2018-12-05T15:35:04.000Z,49.30
2018-12-05T15:38:00.439Z,49.30
2018-12-05T15:40:56.582Z,49.40
2018-12-05T15:43:53.377Z,49.40
2018-12-05T15:46:50.636Z,49.50
2018-12-05T15:49:46.727Z,49.60
2018-12-05T15:52:43.239Z,49.70
2018-12-05T15:55:40.576Z,49.70
2018-12-05T15:58:37.581Z,49.80
2018-12-05T16:01:33.618Z,49.80
2018-12-05T16:04:30.198Z,49.80
2018-12-05T16:07:26.365Z,49.80
2018-12-05T16:10:22.385Z,50.00
2018-12-05T16:13:18.361Z,50.00
2018-12-05T16:16:14.240Z,50.10
2018-12-05T16:19:13.972Z,50.20
2018-12-05T16:22:06.437Z,50.20
2018-12-05T16:25:02.589Z,50.10
2018-12-05T16:27:58.354Z,50.10
2018-12-05T16:30:54.498Z,50.20
2018-12-05T16:33:50.615Z,50.30
2018-12-05T16:36:47.016Z,50.20
2018-12-05T16:39:43.608Z,50.10
2018-12-05T16:42:40.100Z,49.90
2018-12-05T16:45:38.214Z,49.70
2018-12-05T16:48:36.936Z,49.60
2018-12-05T16:51:33.844Z,49.50
2018-12-05T16:54:30.017Z,49.40
2018-12-05T16:57:29.977Z,49.40
2018-12-05T17:00:28.849Z,49.40
2018-12-05T17:03:26.560Z,49.30
2018-12-05T17:06:23.545Z,49.20
2018-12-05T17:09:26.001Z,49.20
2018-12-05T17:12:16.608Z,49.30
2018-12-05T17:15:12.688Z,50.00
2018-12-05T17:18:08.186Z,49.50
2018-12-05T17:21:04.110Z,49.50
2018-12-05T17:24:00.113Z,49.60
2018-12-05T17:26:59.642Z,49.60
2018-12-05T17:29:52.456Z,49.60
2018-12-05T17:32:48.086Z,49.50
2018-12-05T17:35:44.190Z,49.60
2018-12-05T17:38:40.437Z,49.60
2018-12-05T17:41:36.625Z,49.50
2018-12-05T17:44:32.386Z,49.60
2018-12-05T17:47:31.159Z,49.60
2018-12-05T17:50:26.719Z,49.70
2018-12-05T17:53:22.597Z,49.80
2018-12-05T17:56:18.434Z,50.00
2018-12-05T17:59:14.264Z,50.10
2018-12-05T18:02:09.982Z,50.10
2018-12-05T18:05:14.864Z,50.20
2018-12-05T18:08:18.812Z,50.20
2018-12-05T18:11:14.437Z,50.30
2018-12-05T18:14:10.872Z,50.10
2018-12-05T18:17:06.529Z,50.10
2018-12-05T18:20:02.218Z,50.20
2018-12-05T18:22:57.760Z,50.30
2018-12-05T18:25:53.782Z,50.30
2018-12-05T18:28:49.704Z,50.30
2018-12-05T18:31:45.128Z,50.30
2018-12-05T18:34:40.638Z,50.40
2018-12-05T18:37:36.385Z,50.50
2018-12-05T18:40:31.969Z,50.50
2018-12-05T18:43:27.802Z,50.60
2018-12-05T18:46:23.473Z,50.60
2018-12-05T18:49:19.539Z,50.70
2018-12-05T18:52:15.411Z,50.80
2018-12-05T18:55:11.510Z,50.80
2018-12-05T18:58:07.242Z,50.80
2018-12-05T19:01:02.970Z,50.90
2018-12-05T19:03:58.645Z,51.00
2018-12-05T19:06:54.312Z,51.10
2018-12-05T19:09:49.769Z,51.30
2018-12-05T19:12:45.347Z,51.40
2018-12-05T19:15:40.786Z,51.50
2018-12-05T19:18:36.416Z,51.60
2018-12-05T19:21:31.757Z,51.80
2018-12-05T19:24:27.744Z,51.80
2018-12-05T19:27:24.583Z,51.80
2018-12-05T19:30:20.104Z,51.70
2018-12-05T19:33:15.548Z,51.60
2018-12-05T19:36:11.116Z,51.70
2018-12-05T19:39:08.301Z,51.70
2018-12-05T19:42:04.104Z,51.70
2018-12-05T19:44:59.576Z,51.70
2018-12-05T19:47:55.622Z,51.70
2018-12-05T19:50:51.195Z,51.70
2018-12-05T19:53:46.764Z,51.80
2018-12-05T19:56:42.912Z,51.80
2018-12-05T19:59:38.935Z,52.00
2018-12-05T20:02:35.068Z,52.00
2018-12-05T20:05:30.945Z,52.00
2018-12-05T20:08:26.637Z,52.00
2018-12-05T20:11:22.251Z,52.10
2018-12-05T20:14:33.365Z,52.20
2018-12-05T20:17:28.824Z,52.30
2018-12-05T20:20:25.008Z,52.40
2018-12-05T20:23:20.477Z,52.50
2018-12-05T20:26:15.829Z,52.60
2018-12-05T20:29:11.274Z,52.70
2018-12-05T20:32:07.158Z,52.70
2018-12-05T20:35:03.206Z,52.70
2018-12-05T20:37:59.040Z,52.70
2018-12-05T20:40:54.681Z,52.80
2018-12-05T20:43:50.233Z,53.00
2018-12-05T20:46:46.015Z,53.00
2018-12-05T20:49:41.793Z,53.10
2018-12-05T20:52:37.581Z,53.20
2018-12-05T20:55:33.360Z,53.20
2018-12-05T20:58:29.245Z,53.30
2018-12-05T21:01:25.028Z,53.30
2018-12-05T21:04:20.624Z,53.30
2018-12-05T21:07:16.178Z,53.10
2018-12-05T21:10:14.720Z,53.00
2018-12-05T21:13:10.861Z,52.90
2018-12-05T21:16:06.546Z,52.90
2018-12-05T21:19:01.915Z,52.90
2018-12-05T21:21:58.368Z,52.90
2018-12-05T21:24:53.706Z,52.90
2018-12-05T21:27:52.100Z,52.80
2018-12-05T21:30:47.898Z,52.90
2018-12-05T21:33:46.410Z,52.90
2018-12-05T21:36:41.974Z,52.80
2018-12-05T21:39:37.822Z,52.80
2018-12-05T21:42:33.210Z,52.90
2018-12-05T21:45:28.678Z,53.10
2018-12-05T21:48:24.274Z,53.10
2018-12-05T21:51:19.840Z,53.20
2018-12-05T21:54:15.210Z,53.20
2018-12-05T21:57:10.906Z,53.20
2018-12-05T22:00:06.962Z,53.10
2018-12-05T22:03:02.461Z,53.10
2018-12-05T22:05:58.029Z,52.90
2018-12-05T22:08:53.556Z,52.90
2018-12-05T22:11:49.332Z,52.80
2018-12-05T22:14:45.178Z,52.90
2018-12-05T22:17:40.743Z,52.80
2018-12-05T22:20:36.236Z,52.80
2018-12-05T22:23:31.840Z,53.00
2018-12-05T22:26:27.274Z,53.00
2018-12-05T22:29:22.928Z,53.10
2018-12-05T22:32:18.829Z,53.10
2018-12-05T22:35:13.090Z,53.10
2018-12-05T22:38:08.683Z,53.30
2018-12-05T22:41:05.372Z,53.40
2018-12-05T22:44:01.012Z,53.50
2018-12-05T22:46:56.440Z,53.50
2018-12-05T22:49:51.890Z,53.50
2018-12-05T22:52:47.505Z,53.50
2018-12-05T22:55:43.047Z,53.60
2018-12-05T22:58:38.566Z,53.70
2018-12-05T23:01:34.123Z,53.70
2018-12-05T23:04:30.529Z,53.70
2018-12-05T23:07:26.381Z,53.80
2018-12-05T23:10:22.156Z,53.80
2018-12-05T23:13:17.619Z,53.80
2018-12-05T23:16:13.133Z,53.90
2018-12-05T23:19:08.704Z,53.90
2018-12-05T23:22:03.953Z,54.00
2018-12-05T23:24:59.481Z,54.10
2018-12-05T23:27:54.946Z,54.10
2018-12-05T23:30:50.458Z,54.20
2018-12-05T23:33:46.236Z,54.30
2018-12-05T23:36:42.076Z,54.40
2018-12-05T23:39:37.954Z,54.40
2018-12-05T23:42:33.967Z,54.50
2018-12-05T23:45:30.070Z,54.60
2018-12-05T23:48:25.865Z,54.60
2018-12-05T23:51:22.213Z,54.60
2018-12-05T23:54:17.668Z,54.70
2018-12-05T23:57:13.185Z,54.60
